createdAt,value
2018-08-25T00:04:44.468Z,44.40
2018-08-25T00:09:48.319Z,44.40
2018-08-25T00:14:52.229Z,44.30
2018-08-25T00:19:56.416Z,44.20
2018-08-25T00:25:00.134Z,44.20
2018-08-25T00:30:04.296Z,44.10
2018-08-25T00:35:07.988Z,44.10
2018-08-25T00:40:12.191Z,44.00
2018-08-25T00:45:16.654Z,44.10
2018-08-25T00:50:20.473Z,44.10
2018-08-25T00:55:24.626Z,44.10
2018-08-25T01:00:28.445Z,44.10
2018-08-25T01:05:33.124Z,44.10
2018-08-25T01:10:38.211Z,44.10
2018-08-25T01:15:42.338Z,44.00
2018-08-25T01:20:47.412Z,44.10
2018-08-25T01:25:51.219Z,44.10
2018-08-25T01:30:55.246Z,44.10
2018-08-25T01:35:59.269Z,44.10
2018-08-25T01:41:02.832Z,44.00
2018-08-25T01:46:07.011Z,43.50
2018-08-25T01:51:11.169Z,44.00
2018-08-25T01:56:15.414Z,44.00
2018-08-25T02:01:19.619Z,44.10
2018-08-25T02:06:23.672Z,44.00
2018-08-25T02:11:27.692Z,44.10
2018-08-25T02:16:31.775Z,44.00
2018-08-25T02:21:35.580Z,44.00
2018-08-25T02:26:39.446Z,44.00
2018-08-25T02:31:43.567Z,43.90
2018-08-25T02:36:47.696Z,44.00
2018-08-25T02:41:52.155Z,44.10
2018-08-25T02:46:56.451Z,44.10
2018-08-25T02:52:00.203Z,44.00
2018-08-25T02:57:04.048Z,44.00
2018-08-25T03:02:07.925Z,44.10
2018-08-25T03:07:12.054Z,44.30
2018-08-25T03:12:16.213Z,44.40
2018-08-25T03:17:20.047Z,44.60
2018-08-25T03:22:24.351Z,44.50
2018-08-25T03:27:28.905Z,44.60
2018-08-25T03:32:32.934Z,44.80
2018-08-25T03:37:37.074Z,45.10
2018-08-25T03:42:40.889Z,45.30
2018-08-25T03:47:44.666Z,45.60
2018-08-25T03:52:48.370Z,46.00
2018-08-25T03:57:54.420Z,46.10
2018-08-25T04:02:58.094Z,46.10
2018-08-25T04:08:02.009Z,46.40
2018-08-25T04:13:06.867Z,46.60
2018-08-25T04:18:11.448Z,46.80
2018-08-25T04:23:15.285Z,47.00
2018-08-25T04:28:19.690Z,47.20
2018-08-25T04:33:23.407Z,47.40
2018-08-25T04:38:27.202Z,47.40
2018-08-25T04:43:31.125Z,47.40
2018-08-25T04:48:36.155Z,47.50
2018-08-25T04:53:40.003Z,47.50
2018-08-25T04:58:44.938Z,47.60
2018-08-25T05:03:48.952Z,47.60
2018-08-25T05:09:11.177Z,47.60
2018-08-25T05:14:15.068Z,47.80
2018-08-25T05:19:42.498Z,47.70
2018-08-25T05:24:46.431Z,47.70
2018-08-25T05:29:50.236Z,47.90
2018-08-25T05:34:54.848Z,48.00
2018-08-25T05:39:58.812Z,48.20
2018-08-25T05:45:03.270Z,48.20
2018-08-25T05:50:07.052Z,48.20
2018-08-25T05:55:10.795Z,48.20
2018-08-25T06:00:14.757Z,48.30
2018-08-25T06:05:18.451Z,48.90
2018-08-25T06:10:41.728Z,48.10
2018-08-25T06:15:45.870Z,48.40
2018-08-25T06:20:50.029Z,48.40
2018-08-25T06:25:53.796Z,48.40
2018-08-25T06:30:57.853Z,48.30
2018-08-25T06:36:01.809Z,48.30
2018-08-25T06:41:06.119Z,48.30
2018-08-25T06:46:11.111Z,48.30
2018-08-25T06:51:14.898Z,48.30
2018-08-25T06:56:18.843Z,48.40
2018-08-25T07:01:22.827Z,48.50
2018-08-25T07:06:31.816Z,48.50
2018-08-25T07:11:35.776Z,48.40
2018-08-25T07:16:40.757Z,48.50
2018-08-25T07:21:44.857Z,48.50
2018-08-25T07:26:49.292Z,48.30
2018-08-25T07:31:53.671Z,48.20
2018-08-25T07:36:57.690Z,48.10
2018-08-25T07:42:01.485Z,48.80
2018-08-25T07:47:05.332Z,48.10
2018-08-25T07:52:09.652Z,48.10
2018-08-25T07:57:13.217Z,48.00
2018-08-25T08:02:17.370Z,48.20
2018-08-25T08:07:21.824Z,48.30
2018-08-25T08:12:26.033Z,48.90
2018-08-25T08:17:30.083Z,47.90
2018-08-25T08:22:48.170Z,47.80
2018-08-25T08:28:16.108Z,47.60
2018-08-25T08:33:20.178Z,47.50
2018-08-25T08:38:24.387Z,47.40
2018-08-25T08:43:28.220Z,47.70
2018-08-25T08:48:38.070Z,47.80
2018-08-25T08:53:41.853Z,47.80
2018-08-25T08:58:57.605Z,47.90
2018-08-25T09:04:01.406Z,48.00
2018-08-25T09:09:09.341Z,48.20
2018-08-25T09:14:13.028Z,48.60
2018-08-25T09:19:20.924Z,48.70
2018-08-25T09:24:24.867Z,48.60
2018-08-25T09:29:35.102Z,48.60
2018-08-25T09:34:39.223Z,48.60
2018-08-25T09:39:43.466Z,48.60
2018-08-25T09:44:48.092Z,48.40
2018-08-25T09:49:52.483Z,48.20
2018-08-25T09:54:56.879Z,48.70
2018-08-25T10:00:01.125Z,48.20
2018-08-25T10:05:04.837Z,48.30
2018-08-25T10:10:08.887Z,48.40
2018-08-25T10:15:12.461Z,48.10
2018-08-25T10:20:16.735Z,48.10
2018-08-25T10:25:21.076Z,48.00
2018-08-25T10:30:24.780Z,48.00
2018-08-25T10:35:28.726Z,48.40
2018-08-25T10:40:32.516Z,47.50
2018-08-25T10:45:36.551Z,47.60
2018-08-25T10:50:40.427Z,47.10
2018-08-25T10:55:44.211Z,47.30
2018-08-25T11:00:48.385Z,47.40
2018-08-25T11:05:51.881Z,47.20
2018-08-25T11:10:55.795Z,47.10
2018-08-25T11:15:59.766Z,46.80
2018-08-25T11:21:03.768Z,47.10
2018-08-25T11:26:08.056Z,47.00
2018-08-25T11:31:11.912Z,46.70
2018-08-25T11:36:15.948Z,46.70
2018-08-25T11:41:19.844Z,46.50
2018-08-25T11:46:23.642Z,46.60
2018-08-25T11:51:27.615Z,47.70
2018-08-25T11:56:31.345Z,48.20
2018-08-25T12:01:35.156Z,48.60
2018-08-25T12:06:38.960Z,48.90
2018-08-25T12:11:42.869Z,49.10
2018-08-25T12:16:46.806Z,49.40
2018-08-25T12:21:50.739Z,49.20
2018-08-25T12:26:56.400Z,48.60
2018-08-25T12:32:00.527Z,48.50
2018-08-25T12:37:04.617Z,48.10
2018-08-25T12:42:08.454Z,48.50
2018-08-25T12:47:12.089Z,49.10
2018-08-25T12:52:15.902Z,49.50
2018-08-25T12:57:20.428Z,49.70
2018-08-25T13:02:24.162Z,49.70
2018-08-25T13:07:28.164Z,49.30
2018-08-25T13:12:32.107Z,48.60
2018-08-25T13:17:36.195Z,48.60
2018-08-25T13:22:40.044Z,48.30
2018-08-25T13:27:58.103Z,48.10
2018-08-25T13:33:01.947Z,47.90
2018-08-25T13:43:38.709Z,47.60
2018-08-25T13:54:16.895Z,47.20
2018-08-25T14:04:54.342Z,47.50
2018-08-25T14:09:58.453Z,47.30
2018-08-25T14:15:02.529Z,47.30
2018-08-25T14:20:06.235Z,47.80
2018-08-25T14:25:10.070Z,48.10
2018-08-25T14:30:13.890Z,48.40
2018-08-25T14:35:17.673Z,48.60
2018-08-25T14:40:21.616Z,48.60
2018-08-25T14:45:25.482Z,48.90
2018-08-25T14:50:29.279Z,49.20
2018-08-25T14:55:33.516Z,49.20
2018-08-25T15:00:38.696Z,49.20
2018-08-25T15:05:43.116Z,48.90
2018-08-25T15:10:47.115Z,49.10
2018-08-25T15:15:51.512Z,48.60
2018-08-25T15:20:56.425Z,48.50
2018-08-25T15:26:00.402Z,48.20
2018-08-25T15:31:04.179Z,48.10
2018-08-25T15:36:07.837Z,48.00
2018-08-25T15:41:11.896Z,47.60
2018-08-25T15:46:15.630Z,47.30
2018-08-25T15:51:20.407Z,46.60
2018-08-25T15:56:24.204Z,47.30
2018-08-25T16:01:28.251Z,47.40
2018-08-25T16:06:32.053Z,47.40
2018-08-25T16:11:35.890Z,47.60
2018-08-25T16:16:40.491Z,47.70
2018-08-25T16:21:44.539Z,47.50
2018-08-25T16:26:48.295Z,47.30
2018-08-25T16:31:51.923Z,47.30
2018-08-25T16:36:56.019Z,47.30
2018-08-25T16:42:00.144Z,47.20
2018-08-25T16:47:03.907Z,47.30
2018-08-25T16:52:07.706Z,47.40
2018-08-25T16:57:12.088Z,47.40
2018-08-25T17:02:16.248Z,47.70
2018-08-25T17:07:20.216Z,47.20
2018-08-25T17:12:24.164Z,47.30
2018-08-25T17:17:28.261Z,47.30
2018-08-25T17:22:32.240Z,47.30
2018-08-25T17:27:36.133Z,47.50
2018-08-25T17:32:40.260Z,47.70
2018-08-25T17:37:44.169Z,47.80
2018-08-25T17:42:48.058Z,47.70
2018-08-25T17:47:52.333Z,48.40
2018-08-25T17:52:56.521Z,48.00
2018-08-25T17:58:00.258Z,47.80
2018-08-25T18:03:04.099Z,47.80
2018-08-25T18:08:07.984Z,47.40
2018-08-25T18:13:12.196Z,47.40
2018-08-25T18:18:18.677Z,47.40
2018-08-25T18:23:22.439Z,47.50
2018-08-25T18:28:42.897Z,47.40
2018-08-25T18:33:46.751Z,47.40
2018-08-25T18:38:50.879Z,47.30
2018-08-25T18:43:55.071Z,46.90
2018-08-25T18:49:00.283Z,46.80
2018-08-25T18:54:04.128Z,46.90
2018-08-25T18:59:08.360Z,46.90
2018-08-25T19:04:12.669Z,47.60
2018-08-25T19:09:33.146Z,47.20
2018-08-25T19:14:37.636Z,47.30
2018-08-25T19:19:41.712Z,47.10
2018-08-25T19:24:45.890Z,47.00
2018-08-25T19:29:50.333Z,47.10
2018-08-25T19:34:54.764Z,47.10
2018-08-25T19:39:58.519Z,47.00
2018-08-25T19:45:02.220Z,47.10
2018-08-25T19:50:06.213Z,47.00
2018-08-25T19:55:10.259Z,47.70
2018-08-25T20:00:14.380Z,47.10
2018-08-25T20:05:18.222Z,47.30
2018-08-25T20:10:23.090Z,47.30
2018-08-25T20:15:27.247Z,47.40
2018-08-25T20:20:31.116Z,47.50
2018-08-25T20:25:35.013Z,47.60
2018-08-25T20:30:45.460Z,47.70
2018-08-25T20:35:49.620Z,47.80
2018-08-25T20:40:53.380Z,47.90
2018-08-25T20:45:57.441Z,47.80
2018-08-25T20:51:02.013Z,47.80
2018-08-25T20:56:06.013Z,47.70
2018-08-25T21:01:09.956Z,47.70
2018-08-25T21:06:14.007Z,47.70
2018-08-25T21:11:17.978Z,47.70
2018-08-25T21:16:21.735Z,47.70
2018-08-25T21:21:25.572Z,47.70
2018-08-25T21:26:29.541Z,47.80
2018-08-25T21:31:33.987Z,47.80
2018-08-25T21:36:37.901Z,47.80
2018-08-25T21:41:42.786Z,48.00
2018-08-25T21:52:14.701Z,48.20
2018-08-25T21:57:18.744Z,48.20
2018-08-25T22:02:22.711Z,48.30
2018-08-25T22:07:26.731Z,48.30
2018-08-25T22:12:30.537Z,48.40
2018-08-25T22:17:34.952Z,48.30
2018-08-25T22:22:39.420Z,48.30
2018-08-25T22:27:43.563Z,48.50
2018-08-25T22:32:47.595Z,48.50
2018-08-25T22:37:52.565Z,48.40
2018-08-25T22:42:56.369Z,48.40
2018-08-25T22:48:00.756Z,48.50
2018-08-25T22:53:04.771Z,48.50
2018-08-25T22:58:08.510Z,48.60
2018-08-25T23:03:13.168Z,48.70
2018-08-25T23:08:26.286Z,48.60
2018-08-25T23:13:30.162Z,48.70
2018-08-25T23:18:34.175Z,48.70
2018-08-25T23:23:38.377Z,48.70
2018-08-25T23:28:42.508Z,48.70
2018-08-25T23:33:46.799Z,48.70
2018-08-25T23:38:50.613Z,48.80
2018-08-25T23:43:54.724Z,48.70
2018-08-25T23:48:58.532Z,48.70
2018-08-25T23:54:02.476Z,49.40
2018-08-25T23:59:07.089Z,48.90
